createdAt,value
2018-03-25T00:00:32.758Z,24.00
2018-03-25T00:03:00.927Z,26.57
2018-03-25T00:05:29.172Z,25.43
2018-03-25T00:07:57.407Z,25.00
2018-03-25T00:10:25.577Z,23.63
2018-03-25T00:12:53.883Z,25.20
2018-03-25T00:15:22.065Z,24.13
2018-03-25T00:17:50.260Z,24.77
2018-03-25T00:20:18.433Z,25.17
2018-03-25T00:22:46.629Z,23.47
2018-03-25T00:25:15.574Z,25.30
2018-03-25T00:27:43.750Z,24.03
2018-03-25T00:30:11.951Z,24.57
2018-03-25T00:32:40.149Z,22.60
2018-03-25T00:35:08.354Z,23.20
2018-03-25T00:37:36.534Z,22.90
2018-03-25T00:40:04.710Z,23.07
2018-03-25T00:42:32.897Z,24.27
2018-03-25T00:45:01.108Z,24.60
2018-03-25T00:47:30.058Z,22.87
2018-03-25T00:49:58.229Z,22.00
2018-03-25T00:52:26.391Z,22.50
2018-03-25T00:54:54.568Z,23.57
2018-03-25T00:57:22.751Z,23.00
2018-03-25T00:59:50.929Z,22.10
2018-03-25T01:02:19.111Z,23.30
2018-03-25T01:04:47.297Z,21.37
2018-03-25T01:07:15.481Z,23.17
2018-03-25T01:09:43.647Z,22.70
2018-03-25T01:12:11.835Z,22.20
2018-03-25T01:14:40.023Z,24.47
2018-03-25T01:17:08.968Z,22.43
2018-03-25T01:19:37.198Z,21.10
2018-03-25T01:22:06.130Z,22.30
2018-03-25T01:24:34.295Z,22.80
2018-03-25T01:27:02.479Z,23.10
2018-03-25T01:29:30.677Z,22.60
2018-03-25T01:31:58.843Z,23.53
2018-03-25T01:34:27.030Z,21.17
2018-03-25T01:36:55.254Z,21.77
2018-03-25T01:39:23.651Z,22.17
2018-03-25T01:41:51.814Z,20.57
2018-03-25T01:44:20.004Z,22.23
2018-03-25T01:46:48.173Z,21.60
2018-03-25T01:49:16.373Z,20.60
2018-03-25T01:51:45.332Z,21.00
2018-03-25T01:54:13.493Z,22.50
2018-03-25T01:56:41.663Z,21.07
2018-03-25T01:59:09.883Z,23.77
2018-03-25T02:01:38.067Z,21.83
2018-03-25T02:04:06.248Z,21.20
2018-03-25T02:06:34.410Z,22.53
2018-03-25T02:09:02.576Z,21.43
2018-03-25T02:11:30.754Z,21.30
2018-03-25T02:13:58.926Z,22.13
2018-03-25T02:16:27.099Z,22.67
2018-03-25T02:18:55.278Z,21.00
2018-03-25T02:21:23.458Z,20.93
2018-03-25T02:23:51.624Z,20.23
2018-03-25T02:26:19.834Z,21.77
2018-03-25T02:28:48.011Z,22.43
2018-03-25T02:31:16.185Z,20.70
2018-03-25T02:33:44.347Z,21.10
2018-03-25T02:36:12.540Z,21.40
2018-03-25T02:38:41.512Z,20.77
2018-03-25T02:41:09.762Z,21.20
2018-03-25T02:43:37.942Z,21.50
2018-03-25T02:46:06.111Z,21.07
2018-03-25T02:48:34.286Z,22.63
2018-03-25T02:51:02.471Z,22.37
2018-03-25T02:53:30.646Z,23.60
2018-03-25T02:55:58.822Z,21.60
2018-03-25T02:58:27.043Z,20.80
2018-03-25T03:00:55.974Z,21.20
2018-03-25T03:03:24.140Z,22.47
2018-03-25T03:05:52.308Z,24.53
2018-03-25T03:08:20.493Z,21.93
2018-03-25T03:10:48.677Z,21.50
2018-03-25T03:13:16.852Z,22.10
2018-03-25T03:15:45.039Z,22.50
2018-03-25T03:18:13.451Z,20.70
2018-03-25T03:20:42.393Z,23.27
2018-03-25T03:23:10.576Z,22.13
2018-03-25T03:25:38.752Z,23.27
2018-03-25T03:28:06.922Z,21.73
2018-03-25T03:30:35.095Z,21.13
2018-03-25T03:33:03.271Z,22.10
2018-03-25T03:35:31.453Z,22.50
2018-03-25T03:37:59.633Z,21.80
2018-03-25T03:40:27.821Z,20.90
2018-03-25T03:42:55.992Z,22.13
2018-03-25T03:45:24.193Z,21.57
2018-03-25T03:47:53.134Z,22.03
2018-03-25T03:50:21.333Z,21.07
2018-03-25T03:52:49.495Z,21.50
2018-03-25T03:55:17.708Z,22.00
2018-03-25T03:57:46.635Z,22.80
2018-03-25T04:00:14.898Z,23.60
2018-03-25T04:02:43.072Z,22.83
2018-03-25T04:05:11.243Z,22.87
2018-03-25T04:07:40.265Z,22.50
2018-03-25T04:10:08.447Z,21.73
2018-03-25T04:12:36.627Z,22.50
2018-03-25T04:15:04.877Z,23.90
2018-03-25T04:17:33.042Z,22.80
2018-03-25T04:20:01.220Z,22.27
2018-03-25T04:22:29.398Z,24.90
2018-03-25T04:24:57.576Z,23.40
2018-03-25T04:27:25.768Z,25.03
2018-03-25T04:29:53.952Z,23.27
2018-03-25T04:32:22.123Z,23.83
2018-03-25T04:34:50.305Z,25.53
2018-03-25T04:37:18.516Z,25.40
2018-03-25T04:39:47.474Z,26.17
2018-03-25T04:42:15.643Z,25.27
2018-03-25T04:44:43.810Z,25.70
2018-03-25T04:47:11.976Z,26.23
2018-03-25T04:49:40.137Z,25.20
2018-03-25T04:52:08.308Z,26.13
2018-03-25T04:54:36.499Z,27.03
2018-03-25T04:57:04.696Z,26.67
2018-03-25T04:59:32.859Z,27.20
2018-03-25T05:02:01.047Z,24.53
2018-03-25T05:04:29.214Z,26.37
2018-03-25T05:06:58.138Z,26.60
2018-03-25T05:09:26.319Z,24.43
2018-03-25T05:11:55.258Z,25.20
2018-03-25T05:14:23.427Z,26.07
2018-03-25T05:16:51.591Z,27.47
2018-03-25T05:19:19.813Z,27.27
2018-03-25T05:21:48.015Z,28.90
2018-03-25T05:24:16.954Z,25.77
2018-03-25T05:26:45.121Z,26.50
2018-03-25T05:29:13.310Z,27.17
2018-03-25T05:31:41.484Z,26.80
2018-03-25T05:34:09.666Z,26.23
2018-03-25T05:36:37.845Z,26.60
2018-03-25T05:39:06.794Z,27.73
2018-03-25T05:41:34.999Z,26.07
2018-03-25T05:44:03.177Z,24.63
2018-03-25T05:46:31.352Z,25.17
2018-03-25T05:48:59.528Z,25.63
2018-03-25T05:51:27.690Z,25.47
2018-03-25T05:53:55.912Z,26.17
2018-03-25T05:56:24.942Z,25.23
2018-03-25T05:58:53.114Z,25.97
2018-03-25T06:01:21.326Z,25.60
2018-03-25T06:03:49.491Z,29.23
2018-03-25T06:06:17.656Z,25.43
2018-03-25T06:08:45.821Z,26.20
2018-03-25T06:11:14.024Z,25.17
2018-03-25T06:13:42.958Z,26.60
2018-03-25T06:16:11.922Z,26.40
2018-03-25T06:18:40.120Z,27.33
2018-03-25T06:21:09.065Z,27.23
2018-03-25T06:23:37.250Z,25.83
2018-03-25T06:26:05.431Z,27.80
2018-03-25T06:28:33.868Z,27.87
2018-03-25T06:31:02.034Z,27.57
2018-03-25T06:33:30.965Z,27.47
2018-03-25T06:35:59.156Z,28.37
2018-03-25T06:38:27.328Z,28.63
2018-03-25T06:40:55.486Z,29.00
2018-03-25T06:43:23.670Z,29.73
2018-03-25T06:45:51.858Z,28.60
2018-03-25T06:48:20.028Z,26.67
2018-03-25T06:50:48.203Z,28.13
2018-03-25T06:53:16.388Z,26.53
2018-03-25T06:55:44.549Z,28.70
2018-03-25T06:58:12.745Z,28.37
2018-03-25T07:00:40.931Z,28.20
2018-03-25T07:03:09.891Z,29.63
2018-03-25T07:05:38.064Z,28.47
2018-03-25T07:08:06.237Z,29.53
2018-03-25T07:10:34.431Z,28.20
2018-03-25T07:13:02.618Z,26.77
2018-03-25T07:15:31.546Z,28.23
2018-03-25T07:17:59.731Z,28.47
2018-03-25T07:20:27.889Z,28.50
2018-03-25T07:22:56.072Z,33.53
2018-03-25T07:25:24.309Z,30.70
2018-03-25T07:27:53.290Z,30.67
2018-03-25T07:30:21.465Z,29.20
2018-03-25T07:32:49.673Z,27.27
2018-03-25T07:35:17.868Z,30.27
2018-03-25T07:37:46.853Z,28.77
2018-03-25T07:40:15.797Z,30.37
2018-03-25T07:42:43.966Z,32.90
2018-03-25T07:45:12.143Z,30.87
2018-03-25T07:47:40.342Z,28.97
2018-03-25T07:50:08.580Z,32.00
2018-03-25T07:52:37.487Z,30.60
2018-03-25T07:55:05.653Z,31.00
2018-03-25T07:57:33.821Z,32.60
2018-03-25T08:00:01.984Z,31.77
2018-03-25T08:02:30.156Z,29.63
2018-03-25T08:04:58.324Z,32.00
2018-03-25T08:07:26.507Z,31.50
2018-03-25T08:09:54.683Z,33.17
2018-03-25T08:12:22.856Z,32.87
2018-03-25T08:14:51.017Z,31.93
2018-03-25T08:17:19.962Z,34.57
2018-03-25T08:19:48.150Z,31.13
2018-03-25T08:22:16.337Z,32.73
2018-03-25T08:24:44.513Z,32.20
2018-03-25T08:27:12.678Z,34.70
2018-03-25T08:29:40.848Z,31.10
2018-03-25T08:32:09.021Z,34.00
2018-03-25T08:34:37.189Z,33.33
2018-03-25T08:37:05.379Z,34.10
2018-03-25T08:39:33.557Z,32.90
2018-03-25T08:42:01.753Z,36.60
2018-03-25T08:44:30.733Z,34.60
2018-03-25T08:46:59.713Z,34.87
2018-03-25T08:49:27.882Z,34.27
2018-03-25T08:51:56.047Z,34.53
2018-03-25T08:54:24.244Z,32.83
2018-03-25T08:56:52.417Z,34.80
2018-03-25T08:59:20.645Z,32.47
2018-03-25T09:01:49.142Z,35.83
2018-03-25T09:04:18.428Z,34.57
2018-03-25T09:06:46.609Z,32.63
2018-03-25T09:09:14.786Z,33.80
2018-03-25T09:11:42.952Z,37.53
2018-03-25T09:14:11.127Z,35.23
2018-03-25T09:16:39.304Z,34.87
2018-03-25T09:19:07.510Z,33.57
2018-03-25T09:21:35.683Z,34.13
2018-03-25T09:24:03.854Z,35.47
2018-03-25T09:26:32.013Z,35.20
2018-03-25T09:29:00.956Z,38.43
2018-03-25T09:31:29.912Z,37.40
2018-03-25T09:33:58.076Z,37.90
2018-03-25T09:36:26.303Z,38.57
2018-03-25T09:38:54.450Z,38.73
2018-03-25T09:41:22.630Z,37.57
2018-03-25T09:43:51.021Z,37.97
2018-03-25T09:46:19.965Z,37.63
2018-03-25T09:48:48.172Z,38.70
2018-03-25T09:51:16.374Z,39.13
2018-03-25T09:53:44.544Z,37.17
2018-03-25T09:56:13.501Z,39.80
2018-03-25T09:58:41.711Z,39.40
2018-03-25T10:01:15.531Z,42.80
2018-03-25T10:03:43.701Z,41.73
2018-03-25T10:06:11.914Z,39.90
2018-03-25T10:08:40.094Z,39.43
2018-03-25T10:11:08.260Z,41.90
2018-03-25T10:13:36.451Z,41.40
2018-03-25T10:16:05.401Z,41.13
2018-03-25T10:18:33.582Z,41.87
2018-03-25T10:21:01.869Z,41.30
2018-03-25T10:23:30.159Z,42.57
2018-03-25T10:25:58.379Z,43.40
2018-03-25T10:28:27.302Z,43.63
2018-03-25T10:30:55.460Z,42.17
2018-03-25T10:33:24.444Z,42.27
2018-03-25T10:35:53.399Z,45.07
2018-03-25T10:38:21.574Z,46.47
2018-03-25T10:40:49.770Z,48.63
2018-03-25T10:43:17.959Z,43.63
2018-03-25T10:45:46.903Z,43.60
2018-03-25T10:48:15.096Z,44.07
2018-03-25T10:50:43.305Z,45.47
2018-03-25T10:53:11.494Z,43.27
2018-03-25T10:55:39.666Z,44.00
2018-03-25T10:58:07.839Z,44.70
2018-03-25T11:00:36.010Z,41.00
2018-03-25T11:03:04.947Z,42.63
2018-03-25T11:05:33.125Z,44.23
2018-03-25T11:08:01.296Z,41.90
2018-03-25T11:10:29.468Z,40.57
2018-03-25T11:12:57.640Z,40.40
2018-03-25T11:15:25.814Z,39.10
2018-03-25T11:17:53.987Z,41.10
2018-03-25T11:20:22.161Z,41.40
2018-03-25T11:22:50.367Z,40.00
2018-03-25T11:25:18.547Z,40.47
2018-03-25T11:27:46.723Z,42.10
2018-03-25T11:30:14.907Z,39.50
2018-03-25T11:32:43.842Z,39.80
2018-03-25T11:35:12.042Z,39.93
2018-03-25T11:37:40.209Z,41.60
2018-03-25T11:40:08.387Z,38.50
2018-03-25T11:42:36.573Z,38.90
2018-03-25T11:45:04.752Z,35.73
2018-03-25T11:47:33.006Z,38.37
2018-03-25T11:50:01.179Z,39.13
2018-03-25T11:52:29.355Z,38.60
2018-03-25T11:54:57.582Z,37.30
2018-03-25T11:57:26.538Z,37.43
2018-03-25T11:59:54.704Z,38.47
2018-03-25T12:02:22.874Z,38.53
2018-03-25T12:04:51.060Z,40.50
2018-03-25T12:07:19.449Z,39.43
2018-03-25T12:09:47.766Z,37.20
2018-03-25T12:12:16.700Z,34.80
2018-03-25T12:14:44.898Z,37.63
2018-03-25T12:17:13.117Z,38.70
2018-03-25T12:19:42.035Z,39.73
2018-03-25T12:22:10.204Z,39.00
2018-03-25T12:24:38.414Z,38.20
2018-03-25T12:27:06.598Z,39.10
2018-03-25T12:29:34.755Z,35.77
2018-03-25T12:32:02.934Z,35.43
2018-03-25T12:34:31.107Z,35.70
2018-03-25T12:36:59.276Z,38.97
2018-03-25T12:39:27.455Z,38.40
2018-03-25T12:41:55.629Z,37.17
2018-03-25T12:44:23.851Z,37.87
2018-03-25T12:46:52.026Z,35.70
2018-03-25T12:49:20.214Z,36.70
2018-03-25T12:51:48.416Z,31.33
2018-03-25T12:54:16.604Z,33.77
2018-03-25T12:56:45.544Z,33.60
2018-03-25T12:59:13.737Z,35.13
2018-03-25T13:01:41.945Z,36.10
2018-03-25T13:04:10.078Z,34.40
2018-03-25T13:06:38.279Z,33.47
2018-03-25T13:09:07.308Z,30.43
2018-03-25T13:11:35.466Z,29.93
2018-03-25T13:14:03.638Z,29.33
2018-03-25T13:16:31.804Z,30.73
2018-03-25T13:19:00.010Z,31.77
2018-03-25T13:21:28.975Z,33.07
2018-03-25T13:23:57.163Z,34.00
2018-03-25T13:26:25.354Z,30.60
2018-03-25T13:28:54.293Z,33.27
2018-03-25T13:31:22.487Z,33.03
2018-03-25T13:33:51.457Z,31.40
2018-03-25T13:36:19.635Z,34.37
2018-03-25T13:38:47.822Z,32.47
2018-03-25T13:41:16.015Z,31.87
2018-03-25T13:43:44.184Z,30.77
2018-03-25T13:46:12.359Z,31.30
2018-03-25T13:48:40.875Z,30.87
2018-03-25T13:51:09.799Z,29.20
2018-03-25T13:53:37.971Z,33.27
2018-03-25T13:56:06.138Z,31.60
2018-03-25T13:58:34.311Z,27.50
2018-03-25T14:01:02.475Z,26.63
2018-03-25T14:03:31.494Z,31.43
2018-03-25T14:06:00.431Z,32.20
2018-03-25T14:08:28.609Z,29.53
2018-03-25T14:10:56.778Z,30.90
2018-03-25T14:13:24.979Z,32.50
2018-03-25T14:15:53.927Z,27.10
2018-03-25T14:18:22.146Z,26.20
2018-03-25T14:20:51.129Z,27.10
2018-03-25T14:23:19.301Z,27.37
2018-03-25T14:25:48.251Z,28.13
2018-03-25T14:28:16.433Z,27.50
2018-03-25T14:30:44.642Z,29.20
2018-03-25T14:33:12.823Z,31.27
2018-03-25T14:35:41.784Z,32.03
2018-03-25T14:38:09.977Z,31.40
2018-03-25T14:40:38.163Z,31.30
2018-03-25T14:43:06.348Z,32.33
2018-03-25T14:45:35.287Z,31.17
2018-03-25T14:48:03.480Z,31.90
2018-03-25T14:50:31.694Z,29.17
2018-03-25T14:53:00.669Z,28.83
2018-03-25T14:55:28.845Z,31.60
2018-03-25T14:57:57.009Z,29.77
2018-03-25T15:00:25.194Z,29.53
2018-03-25T15:02:53.360Z,28.07
2018-03-25T15:05:21.547Z,31.80
2018-03-25T15:07:49.773Z,32.40
2018-03-25T15:10:18.136Z,30.30
2018-03-25T15:12:46.371Z,32.90
2018-03-25T15:15:14.557Z,30.43
2018-03-25T15:17:43.547Z,29.83
2018-03-25T15:20:12.522Z,31.03
2018-03-25T15:22:40.687Z,29.90
2018-03-25T15:25:09.669Z,30.13
2018-03-25T15:27:37.831Z,31.63
2018-03-25T15:30:06.012Z,31.03
2018-03-25T15:32:34.197Z,32.57
2018-03-25T15:35:02.368Z,31.17
2018-03-25T15:37:30.540Z,31.47
2018-03-25T15:39:59.599Z,30.03
2018-03-25T15:42:27.770Z,32.27
2018-03-25T15:44:56.005Z,29.10
2018-03-25T15:47:24.188Z,28.80
2018-03-25T15:49:52.383Z,30.50
2018-03-25T15:52:21.422Z,31.47
2018-03-25T15:54:49.599Z,31.07
2018-03-25T15:57:17.779Z,32.33
2018-03-25T15:59:45.950Z,31.03
2018-03-25T16:02:14.165Z,29.47
2018-03-25T16:04:42.341Z,30.20
2018-03-25T16:07:10.521Z,32.20
2018-03-25T16:09:39.497Z,32.17
2018-03-25T16:12:07.689Z,30.27
2018-03-25T16:14:36.626Z,28.10
2018-03-25T16:17:04.802Z,29.13
2018-03-25T16:19:33.018Z,31.10
2018-03-25T16:22:01.220Z,30.57
2018-03-25T16:24:30.168Z,28.97
2018-03-25T16:26:58.354Z,31.37
2018-03-25T16:29:27.556Z,31.23
2018-03-25T16:31:55.784Z,28.30
2018-03-25T16:34:23.945Z,31.60
2018-03-25T16:36:52.112Z,30.73
2018-03-25T16:39:21.046Z,31.03
2018-03-25T16:41:49.217Z,29.33
2018-03-25T16:44:17.411Z,31.40
2018-03-25T16:46:45.582Z,31.33
2018-03-25T16:49:13.820Z,30.40
2018-03-25T16:51:41.993Z,31.67
2018-03-25T16:54:10.167Z,29.53
2018-03-25T16:56:38.348Z,29.90
2018-03-25T16:59:06.531Z,30.63
2018-03-25T17:01:34.703Z,33.30
2018-03-25T17:04:02.890Z,31.73
2018-03-25T17:06:31.069Z,33.23
2018-03-25T17:08:59.249Z,33.80
2018-03-25T17:11:27.441Z,30.30
2018-03-25T17:13:55.622Z,29.70
2018-03-25T17:16:23.807Z,32.20
2018-03-25T17:18:52.762Z,29.60
2018-03-25T17:21:20.936Z,32.27
2018-03-25T17:23:49.122Z,29.10
2018-03-25T17:26:17.312Z,29.67
2018-03-25T17:28:45.503Z,30.93
2018-03-25T17:31:14.447Z,32.50
2018-03-25T17:33:42.616Z,32.13
2018-03-25T17:36:10.776Z,31.23
2018-03-25T17:38:38.937Z,30.80
2018-03-25T17:41:07.102Z,32.80
2018-03-25T17:43:36.055Z,30.93
2018-03-25T17:46:04.299Z,29.03
2018-03-25T17:48:32.475Z,31.03
2018-03-25T17:51:00.659Z,31.30
2018-03-25T17:53:28.910Z,31.10
2018-03-25T17:55:57.127Z,31.33
2018-03-25T17:58:25.305Z,28.87
2018-03-25T18:00:53.509Z,28.90
2018-03-25T18:03:22.458Z,29.50
2018-03-25T18:05:50.679Z,31.83
2018-03-25T18:08:19.643Z,31.40
2018-03-25T18:10:47.816Z,30.37
2018-03-25T18:13:15.990Z,36.50
2018-03-25T18:15:44.174Z,31.93
2018-03-25T18:18:12.366Z,32.97
2018-03-25T18:20:40.646Z,28.67
2018-03-25T18:23:09.599Z,33.13
2018-03-25T18:25:37.865Z,30.93
2018-03-25T18:28:06.058Z,31.60
2018-03-25T18:30:34.994Z,29.77
2018-03-25T18:33:03.925Z,29.90
2018-03-25T18:35:32.108Z,33.60
2018-03-25T18:38:00.296Z,31.50
2018-03-25T18:40:28.505Z,29.47
2018-03-25T18:42:57.456Z,30.40
2018-03-25T18:45:25.627Z,29.40
2018-03-25T18:47:54.619Z,30.20
2018-03-25T18:50:25.234Z,28.93
2018-03-25T18:52:54.037Z,29.30
2018-03-25T18:55:23.861Z,29.50
2018-03-25T18:57:52.060Z,29.97
2018-03-25T19:00:20.306Z,29.60
2018-03-25T19:02:51.008Z,30.37
2018-03-25T19:05:19.230Z,31.30
2018-03-25T19:07:47.426Z,30.93
2018-03-25T19:10:15.619Z,31.37
2018-03-25T19:12:44.555Z,31.80
2018-03-25T19:15:12.735Z,28.83
2018-03-25T19:17:41.735Z,30.90
2018-03-25T19:20:12.404Z,32.73
2018-03-25T19:22:43.016Z,29.40
2018-03-25T19:25:15.001Z,30.13
2018-03-25T19:27:43.131Z,30.33
2018-03-25T19:30:14.159Z,29.30
2018-03-25T19:32:43.363Z,30.40
2018-03-25T19:35:11.673Z,29.37
2018-03-25T19:37:40.621Z,29.20
2018-03-25T19:40:08.851Z,30.20
2018-03-25T19:42:37.784Z,30.53
2018-03-25T19:45:06.078Z,26.80
2018-03-25T19:47:37.916Z,29.97
2018-03-25T19:50:07.694Z,29.90
2018-03-25T19:52:37.076Z,29.57
2018-03-25T19:55:05.277Z,28.63
2018-03-25T19:57:34.208Z,30.57
2018-03-25T20:00:02.386Z,29.13
2018-03-25T20:02:31.107Z,29.17
2018-03-25T20:04:59.270Z,27.83
2018-03-25T20:07:27.523Z,29.47
2018-03-25T20:09:55.785Z,30.10
2018-03-25T20:12:23.975Z,27.73
2018-03-25T20:14:52.204Z,31.53
2018-03-25T20:17:21.154Z,29.27
2018-03-25T20:19:49.319Z,28.57
2018-03-25T20:22:17.533Z,29.03
2018-03-25T20:24:45.686Z,29.10
2018-03-25T20:27:13.871Z,29.03
2018-03-25T20:29:42.059Z,29.63
2018-03-25T20:32:10.339Z,29.57
2018-03-25T20:34:38.526Z,30.30
2018-03-25T20:37:07.470Z,29.47
2018-03-25T20:39:35.649Z,29.27
2018-03-25T20:42:03.830Z,30.27
2018-03-25T20:44:32.025Z,29.60
2018-03-25T20:47:00.250Z,28.17
2018-03-25T20:49:28.651Z,29.60
2018-03-25T20:51:56.861Z,28.83
2018-03-25T20:54:25.813Z,27.10
2018-03-25T20:56:53.989Z,30.30
2018-03-25T20:59:22.180Z,29.50
2018-03-25T21:01:50.384Z,28.87
2018-03-25T21:04:19.336Z,29.00
2018-03-25T21:06:47.515Z,29.83
2018-03-25T21:09:15.725Z,29.37
2018-03-25T21:11:43.907Z,31.17
2018-03-25T21:14:12.845Z,30.63
2018-03-25T21:16:41.023Z,29.90
2018-03-25T21:19:09.223Z,28.80
2018-03-25T21:21:37.406Z,29.47
2018-03-25T21:24:05.591Z,31.37
2018-03-25T21:26:33.771Z,28.93
2018-03-25T21:29:02.720Z,29.00
2018-03-25T21:31:30.903Z,28.50
2018-03-25T21:33:59.077Z,28.40
2018-03-25T21:36:27.246Z,31.67
2018-03-25T21:38:55.437Z,29.50
2018-03-25T21:41:23.642Z,29.07
2018-03-25T21:43:52.607Z,30.87
2018-03-25T21:46:20.807Z,28.70
2018-03-25T21:48:49.750Z,29.50
2018-03-25T21:51:17.938Z,26.87
2018-03-25T21:53:46.197Z,27.30
2018-03-25T21:56:15.098Z,29.80
2018-03-25T21:58:43.272Z,29.77
2018-03-25T22:01:11.463Z,29.13
2018-03-25T22:03:39.638Z,29.00
2018-03-25T22:06:08.298Z,28.30
2018-03-25T22:08:36.460Z,29.63
2018-03-25T22:11:04.627Z,28.87
2018-03-25T22:13:32.818Z,29.13
2018-03-25T22:16:00.995Z,30.27
2018-03-25T22:18:34.171Z,27.50
2018-03-25T22:21:02.342Z,29.80
2018-03-25T22:23:30.515Z,31.30
2018-03-25T22:25:58.704Z,30.17
2018-03-25T22:28:26.886Z,29.20
2018-03-25T22:30:55.075Z,31.23
2018-03-25T22:33:23.256Z,30.53
2018-03-25T22:35:51.455Z,30.77
2018-03-25T22:38:19.630Z,30.17
2018-03-25T22:40:48.591Z,29.87
2018-03-25T22:43:16.768Z,31.50
2018-03-25T22:45:44.970Z,29.70
2018-03-25T22:48:13.177Z,31.30
2018-03-25T22:50:41.358Z,32.20
2018-03-25T22:53:09.563Z,29.30
2018-03-25T22:55:37.740Z,28.90
2018-03-25T22:58:05.913Z,30.77
2018-03-25T23:00:34.091Z,31.47
2018-03-25T23:03:08.712Z,31.93
2018-03-25T23:05:36.933Z,29.43
2018-03-25T23:08:05.877Z,30.40
2018-03-25T23:10:34.070Z,31.80
2018-03-25T23:13:02.276Z,29.30
2018-03-25T23:15:31.218Z,30.53
2018-03-25T23:17:59.403Z,29.93
2018-03-25T23:20:28.346Z,28.93
2018-03-25T23:22:57.295Z,31.20
2018-03-25T23:25:25.510Z,29.60
2018-03-25T23:27:53.682Z,29.50
2018-03-25T23:30:22.614Z,29.97
2018-03-25T23:32:50.786Z,29.90
2018-03-25T23:35:18.981Z,32.63
2018-03-25T23:37:47.157Z,31.30
2018-03-25T23:40:15.322Z,31.63
2018-03-25T23:42:43.499Z,32.90
2018-03-25T23:45:11.677Z,29.60
2018-03-25T23:47:39.852Z,31.57
2018-03-25T23:50:08.024Z,30.53
2018-03-25T23:52:36.194Z,29.73
2018-03-25T23:55:04.373Z,31.10
2018-03-25T23:57:32.553Z,30.50
